Terminal Aerodrome Forecast
Issued by NWS St Louis, MO

Home | Current Version | Previous Version | Text Only | Print | Product List | Glossary On
Versions: 1 2 3 4 5 6 7 8 9 10 11 12 13 14 15 16 17 18 19 20 21 22 23 24
000
FTUS43 KLSX 210907 AAA
TAFCOU
TAF AMD
KCOU 210907Z 2109/2206 16009KT 6SM BR SCT025
     FM211400 16010KT P6SM OVC025
     FM211800 18012KT P6SM BKN035
     FM220400 16012KT 5SM -SHRA BR VCTS OVC020CB=

USA.gov is the U.S. government's official web portal to all federal, state and local government web resources and services.